Terminal Aerodrome Forecast
Issued by NWS Knoxville/Tri Cities, TN

Home | Current Version | Previous Version | Text Only | Print | Product List | Glossary On
Versions: 1 2 3 4 5 6 7 8 9 10 11 12 13 14 15 16 17 18 19 20 21 22 23 24
000
FTUS44 KMRX 291736
TAFTRI
TAF
KTRI 291736Z 2918/3018 VRB03KT P6SM VCTS SCT050CB SCT090
     FM300100 00000KT P6SM FEW100
     FM300800 00000KT 4SM BR SKC
     FM301300 20003KT P6SM SCT250=

USA.gov is the U.S. government's official web portal to all federal, state and local government web resources and services.